sensor_id;sensor_type;location;lat;lon;timestamp;pressure;altitude;pressure_sealevel;temperature;humidity
74966;BME280;63522;47.928;21.042;2024-01-10T00:01:12;102129.10;;;16.58;37.90
74966;BME280;63522;47.928;21.042;2024-01-10T00:03:37;102131.47;;;16.57;37.91
74966;BME280;63522;47.928;21.042;2024-01-10T00:06:03;102133.46;;;16.57;37.94
74966;BME280;63522;47.928;21.042;2024-01-10T00:08:28;102135.42;;;16.57;37.87
74966;BME280;63522;47.928;21.042;2024-01-10T00:10:53;102134.39;;;16.56;37.95
74966;BME280;63522;47.928;21.042;2024-01-10T00:13:20;102132.00;;;16.57;37.90
74966;BME280;63522;47.928;21.042;2024-01-10T00:15:46;102131.31;;;16.57;37.90
74966;BME280;63522;47.928;21.042;2024-01-10T00:18:12;102124.84;;;16.57;37.93
74966;BME280;63522;47.928;21.042;2024-01-10T00:20:37;102125.08;;;16.56;37.87
74966;BME280;63522;47.928;21.042;2024-01-10T00:23:02;102128.63;;;16.56;38.00
74966;BME280;63522;47.928;21.042;2024-01-10T00:25:28;102126.67;;;16.56;37.82
74966;BME280;63522;47.928;21.042;2024-01-10T00:27:54;102125.44;;;16.56;37.89
74966;BME280;63522;47.928;21.042;2024-01-10T00:30:21;102128.23;;;16.54;37.79
74966;BME280;63522;47.928;21.042;2024-01-10T00:32:46;102132.52;;;16.55;37.84
74966;BME280;63522;47.928;21.042;2024-01-10T00:35:11;102131.30;;;16.54;37.96
74966;BME280;63522;47.928;21.042;2024-01-10T00:37:37;102135.20;;;16.55;37.83
74966;BME280;63522;47.928;21.042;2024-01-10T00:40:03;102135.59;;;16.55;37.87
74966;BME280;63522;47.928;21.042;2024-01-10T00:42:28;102135.07;;;16.54;37.89
74966;BME280;63522;47.928;21.042;2024-01-10T00:44:53;102137.40;;;16.54;37.84
74966;BME280;63522;47.928;21.042;2024-01-10T00:47:19;102136.33;;;16.54;37.99
74966;BME280;63522;47.928;21.042;2024-01-10T00:49:44;102132.93;;;16.54;37.90
74966;BME280;63522;47.928;21.042;2024-01-10T00:52:09;102135.42;;;16.54;37.95
74966;BME280;63522;47.928;21.042;2024-01-10T00:54:35;102136.53;;;16.54;37.86
74966;BME280;63522;47.928;21.042;2024-01-10T00:57:00;102138.32;;;16.54;37.84
74966;BME280;63522;47.928;21.042;2024-01-10T00:59:25;102134.58;;;16.53;37.80
74966;BME280;63522;47.928;21.042;2024-01-10T01:01:51;102135.86;;;16.53;37.73
74966;BME280;63522;47.928;21.042;2024-01-10T01:04:17;102136.20;;;16.53;37.97
74966;BME280;63522;47.928;21.042;2024-01-10T01:06:42;102135.54;;;16.53;37.78
74966;BME280;63522;47.928;21.042;2024-01-10T01:09:07;102137.45;;;16.54;37.84
74966;BME280;63522;47.928;21.042;2024-01-10T01:11:33;102134.09;;;16.53;37.86
74966;BME280;63522;47.928;21.042;2024-01-10T01:13:58;102129.80;;;16.52;37.85
74966;BME280;63522;47.928;21.042;2024-01-10T01:16:23;102131.89;;;16.53;37.81
74966;BME280;63522;47.928;21.042;2024-01-10T01:18:49;102136.09;;;16.52;37.74
74966;BME280;63522;47.928;21.042;2024-01-10T01:21:14;102140.88;;;16.53;37.82
74966;BME280;63522;47.928;21.042;2024-01-10T01:23:39;102137.46;;;16.54;37.84
74966;BME280;63522;47.928;21.042;2024-01-10T01:26:05;102136.02;;;16.54;37.79
74966;BME280;63522;47.928;21.042;2024-01-10T01:28:30;102137.61;;;16.54;37.81
74966;BME280;63522;47.928;21.042;2024-01-10T01:30:56;102137.44;;;16.54;37.66
74966;BME280;63522;47.928;21.042;2024-01-10T01:33:22;102141.26;;;16.53;37.76
74966;BME280;63522;47.928;21.042;2024-01-10T01:35:47;102143.23;;;16.53;37.85
74966;BME280;63522;47.928;21.042;2024-01-10T01:38:13;102140.40;;;16.52;37.72
74966;BME280;63522;47.928;21.042;2024-01-10T01:40:38;102143.98;;;16.53;37.73
74966;BME280;63522;47.928;21.042;2024-01-10T01:43:24;102141.35;;;16.52;37.79
74966;BME280;63522;47.928;21.042;2024-01-10T01:45:55;102138.28;;;16.52;37.66
74966;BME280;63522;47.928;21.042;2024-01-10T01:48:21;102143.35;;;16.51;37.74
74966;BME280;63522;47.928;21.042;2024-01-10T01:50:50;102142.96;;;16.52;37.71
74966;BME280;63522;47.928;21.042;2024-01-10T01:53:16;102135.85;;;16.50;37.74
74966;BME280;63522;47.928;21.042;2024-01-10T01:55:43;102139.61;;;16.51;37.70
74966;BME280;63522;47.928;21.042;2024-01-10T01:58:10;102137.69;;;16.50;37.73
74966;BME280;63522;47.928;21.042;2024-01-10T02:00:36;102133.94;;;16.49;37.70
74966;BME280;63522;47.928;21.042;2024-01-10T02:03:03;102129.80;;;16.49;37.69
74966;BME280;63522;47.928;21.042;2024-01-10T02:05:30;102128.52;;;16.50;37.79
74966;BME280;63522;47.928;21.042;2024-01-10T02:07:55;102128.05;;;16.48;37.73
74966;BME280;63522;47.928;21.042;2024-01-10T02:10:21;102123.59;;;16.48;37.74
74966;BME280;63522;47.928;21.042;2024-01-10T02:12:46;102120.86;;;16.49;37.69
74966;BME280;63522;47.928;21.042;2024-01-10T02:15:13;102116.56;;;16.48;37.64
74966;BME280;63522;47.928;21.042;2024-01-10T02:17:39;102121.57;;;16.49;37.81
74966;BME280;63522;47.928;21.042;2024-01-10T02:20:12;102120.13;;;16.49;37.77
74966;BME280;63522;47.928;21.042;2024-01-10T02:22:38;102123.14;;;16.49;37.75
74966;BME280;63522;47.928;21.042;2024-01-10T02:25:05;102121.55;;;16.49;37.62
74966;BME280;63522;47.928;21.042;2024-01-10T02:27:32;102121.36;;;16.49;37.67
74966;BME280;63522;47.928;21.042;2024-01-10T02:29:59;102119.04;;;16.49;37.70
74966;BME280;63522;47.928;21.042;2024-01-10T02:32:26;102124.95;;;16.49;37.58
74966;BME280;63522;47.928;21.042;2024-01-10T02:34:52;102120.89;;;16.48;37.72
74966;BME280;63522;47.928;21.042;2024-01-10T02:37:17;102116.42;;;16.48;37.69
74966;BME280;63522;47.928;21.042;2024-01-10T02:39:42;102111.80;;;16.47;37.63
74966;BME280;63522;47.928;21.042;2024-01-10T02:42:08;102110.02;;;16.47;37.65
74966;BME280;63522;47.928;21.042;2024-01-10T02:44:33;102108.02;;;16.47;37.64
74966;BME280;63522;47.928;21.042;2024-01-10T02:46:58;102109.86;;;16.46;37.73
74966;BME280;63522;47.928;21.042;2024-01-10T02:49:24;102113.65;;;16.46;37.66
74966;BME280;63522;47.928;21.042;2024-01-10T02:51:49;102108.11;;;16.46;37.71
74966;BME280;63522;47.928;21.042;2024-01-10T02:54:15;102108.46;;;16.46;37.80
74966;BME280;63522;47.928;21.042;2024-01-10T02:56:41;102107.42;;;16.45;37.64
74966;BME280;63522;47.928;21.042;2024-01-10T02:59:06;102103.81;;;16.45;37.62
74966;BME280;63522;47.928;21.042;2024-01-10T03:01:32;102109.40;;;16.45;37.68
74966;BME280;63522;47.928;21.042;2024-01-10T03:03:57;102107.59;;;16.45;37.60
74966;BME280;63522;47.928;21.042;2024-01-10T03:06:22;102108.31;;;16.45;37.61
74966;BME280;63522;47.928;21.042;2024-01-10T03:08:48;102101.36;;;16.45;37.55
74966;BME280;63522;47.928;21.042;2024-01-10T03:11:14;102098.09;;;16.45;37.63
74966;BME280;63522;47.928;21.042;2024-01-10T03:13:40;102097.39;;;16.45;37.78
74966;BME280;63522;47.928;21.042;2024-01-10T03:16:05;102092.05;;;16.44;37.65
74966;BME280;63522;47.928;21.042;2024-01-10T03:18:31;102090.03;;;16.45;37.57
74966;BME280;63522;47.928;21.042;2024-01-10T03:20:56;102088.75;;;16.45;37.57
74966;BME280;63522;47.928;21.042;2024-01-10T03:23:21;102081.81;;;16.44;37.65
74966;BME280;63522;47.928;21.042;2024-01-10T03:25:47;102084.50;;;16.44;37.59
74966;BME280;63522;47.928;21.042;2024-01-10T03:28:16;102081.80;;;16.44;37.52
74966;BME280;63522;47.928;21.042;2024-01-10T03:30:44;102079.48;;;16.44;37.45
74966;BME280;63522;47.928;21.042;2024-01-10T03:33:10;102080.89;;;16.44;37.58
74966;BME280;63522;47.928;21.042;2024-01-10T03:35:35;102082.17;;;16.44;37.71
74966;BME280;63522;47.928;21.042;2024-01-10T03:38:01;102081.44;;;16.44;37.61
74966;BME280;63522;47.928;21.042;2024-01-10T03:40:26;102083.33;;;16.43;37.53
74966;BME280;63522;47.928;21.042;2024-01-10T03:42:52;102084.59;;;16.43;37.51
74966;BME280;63522;47.928;21.042;2024-01-10T03:45:17;102084.60;;;16.42;37.56
74966;BME280;63522;47.928;21.042;2024-01-10T03:47:46;102079.62;;;16.42;37.52
74966;BME280;63522;47.928;21.042;2024-01-10T03:50:15;102082.64;;;16.42;37.52
74966;BME280;63522;47.928;21.042;2024-01-10T03:52:42;102080.17;;;16.41;37.51
74966;BME280;63522;47.928;21.042;2024-01-10T03:55:07;102078.75;;;16.41;37.72
74966;BME280;63522;47.928;21.042;2024-01-10T03:57:33;102084.16;;;16.41;37.60
74966;BME280;63522;47.928;21.042;2024-01-10T03:59:58;102081.46;;;16.41;37.58
74966;BME280;63522;47.928;21.042;2024-01-10T04:02:23;102080.92;;;16.41;37.64
74966;BME280;63522;47.928;21.042;2024-01-10T04:04:49;102073.23;;;16.40;37.49
74966;BME280;63522;47.928;21.042;2024-01-10T04:07:15;102072.38;;;16.40;37.61
74966;BME280;63522;47.928;21.042;2024-01-10T04:09:40;102068.93;;;16.40;37.60
74966;BME280;63522;47.928;21.042;2024-01-10T04:12:06;102072.14;;;16.40;37.50
74966;BME280;63522;47.928;21.042;2024-01-10T04:14:31;102072.16;;;16.40;37.56
74966;BME280;63522;47.928;21.042;2024-01-10T04:16:56;102073.05;;;16.40;37.45
74966;BME280;63522;47.928;21.042;2024-01-10T04:19:22;102077.15;;;16.41;37.38
74966;BME280;63522;47.928;21.042;2024-01-10T04:21:47;102077.17;;;16.41;37.43
74966;BME280;63522;47.928;21.042;2024-01-10T04:24:13;102081.48;;;16.40;37.51
74966;BME280;63522;47.928;21.042;2024-01-10T04:26:38;102080.58;;;16.41;37.53
74966;BME280;63522;47.928;21.042;2024-01-10T04:29:03;102080.27;;;16.40;37.59
74966;BME280;63522;47.928;21.042;2024-01-10T04:31:28;102081.73;;;16.40;37.51
74966;BME280;63522;47.928;21.042;2024-01-10T04:33:54;102083.00;;;16.39;37.47
74966;BME280;63522;47.928;21.042;2024-01-10T04:36:20;102084.81;;;16.39;37.55
74966;BME280;63522;47.928;21.042;2024-01-10T04:38:45;102088.44;;;16.39;37.44
74966;BME280;63522;47.928;21.042;2024-01-10T04:41:11;102086.47;;;16.39;37.60
74966;BME280;63522;47.928;21.042;2024-01-10T04:43:36;102089.31;;;16.39;37.42
74966;BME280;63522;47.928;21.042;2024-01-10T04:46:01;102091.27;;;16.39;37.39
74966;BME280;63522;47.928;21.042;2024-01-10T04:48:27;102089.53;;;16.38;37.44
74966;BME280;63522;47.928;21.042;2024-01-10T04:50:52;102092.02;;;16.39;37.49
74966;BME280;63522;47.928;21.042;2024-01-10T04:53:17;102098.89;;;16.38;37.48
74966;BME280;63522;47.928;21.042;2024-01-10T04:55:43;102099.81;;;16.38;37.61
74966;BME280;63522;47.928;21.042;2024-01-10T04:58:09;102101.76;;;16.38;37.47
74966;BME280;63522;47.928;21.042;2024-01-10T05:00:34;102102.66;;;16.38;37.51
74966;BME280;63522;47.928;21.042;2024-01-10T05:03:00;102102.48;;;16.38;37.42
74966;BME280;63522;47.928;21.042;2024-01-10T05:05:25;102107.13;;;16.38;37.50
74966;BME280;63522;47.928;21.042;2024-01-10T05:07:50;102108.77;;;16.38;37.37
74966;BME280;63522;47.928;21.042;2024-01-10T05:10:16;102110.42;;;16.38;37.52
74966;BME280;63522;47.928;21.042;2024-01-10T05:12:41;102102.70;;;16.37;37.41
74966;BME280;63522;47.928;21.042;2024-01-10T05:15:07;102103.08;;;16.37;37.42
74966;BME280;63522;47.928;21.042;2024-01-10T05:17:33;102106.52;;;16.37;37.47
74966;BME280;63522;47.928;21.042;2024-01-10T05:19:59;102107.91;;;16.38;37.50
74966;BME280;63522;47.928;21.042;2024-01-10T05:22:24;102107.19;;;16.38;37.44
74966;BME280;63522;47.928;21.042;2024-01-10T05:24:50;102107.70;;;16.38;37.43
74966;BME280;63522;47.928;21.042;2024-01-10T05:27:15;102105.06;;;16.37;37.40
74966;BME280;63522;47.928;21.042;2024-01-10T05:29:41;102106.45;;;16.38;37.52
74966;BME280;63522;47.928;21.042;2024-01-10T05:32:06;102105.20;;;16.38;37.43
74966;BME280;63522;47.928;21.042;2024-01-10T05:34:32;102109.33;;;16.38;37.50
74966;BME280;63522;47.928;21.042;2024-01-10T05:36:57;102105.61;;;16.37;37.27
74966;BME280;63522;47.928;21.042;2024-01-10T05:39:22;102108.13;;;16.37;37.42
74966;BME280;63522;47.928;21.042;2024-01-10T05:41:48;102104.94;;;16.36;37.51
74966;BME280;63522;47.928;21.042;2024-01-10T05:44:13;102107.61;;;16.37;37.24
74966;BME280;63522;47.928;21.042;2024-01-10T05:46:40;102107.27;;;16.37;37.39
74966;BME280;63522;47.928;21.042;2024-01-10T05:49:05;102111.92;;;16.37;37.41
74966;BME280;63522;47.928;21.042;2024-01-10T05:51:31;102110.14;;;16.36;37.45
74966;BME280;63522;47.928;21.042;2024-01-10T05:53:57;102113.27;;;16.35;37.31
74966;BME280;63522;47.928;21.042;2024-01-10T05:56:22;102116.64;;;16.36;37.25
74966;BME280;63522;47.928;21.042;2024-01-10T05:58:48;102118.66;;;16.35;37.36
74966;BME280;63522;47.928;21.042;2024-01-10T06:01:17;102117.60;;;16.35;37.47
74966;BME280;63522;47.928;21.042;2024-01-10T06:03:42;102121.57;;;16.35;37.36
74966;BME280;63522;47.928;21.042;2024-01-10T06:06:07;102120.10;;;16.35;37.41
74966;BME280;63522;47.928;21.042;2024-01-10T06:08:33;102122.98;;;16.35;37.39
74966;BME280;63522;47.928;21.042;2024-01-10T06:10:58;102124.33;;;16.34;37.37
74966;BME280;63522;47.928;21.042;2024-01-10T06:13:24;102127.52;;;16.35;37.29
74966;BME280;63522;47.928;21.042;2024-01-10T06:15:49;102129.80;;;16.35;37.26
74966;BME280;63522;47.928;21.042;2024-01-10T06:18:15;102132.02;;;16.34;37.33
74966;BME280;63522;47.928;21.042;2024-01-10T06:20:41;102132.23;;;16.34;37.40
74966;BME280;63522;47.928;21.042;2024-01-10T06:23:06;102132.73;;;16.34;37.29
74966;BME280;63522;47.928;21.042;2024-01-10T06:25:31;102135.40;;;16.35;37.47
74966;BME280;63522;47.928;21.042;2024-01-10T06:27:57;102134.35;;;16.34;37.46
74966;BME280;63522;47.928;21.042;2024-01-10T06:30:22;102135.93;;;16.35;37.29
74966;BME280;63522;47.928;21.042;2024-01-10T06:32:48;102138.13;;;16.34;37.26
74966;BME280;63522;47.928;21.042;2024-01-10T06:35:13;102137.21;;;16.34;37.32
74966;BME280;63522;47.928;21.042;2024-01-10T06:37:40;102139.20;;;16.34;37.59
74966;BME280;63522;47.928;21.042;2024-01-10T06:40:06;102130.09;;;16.34;37.29
74966;BME280;63522;47.928;21.042;2024-01-10T06:42:31;102131.00;;;16.33;37.33
74966;BME280;63522;47.928;21.042;2024-01-10T06:44:57;102139.39;;;16.34;37.32
74966;BME280;63522;47.928;21.042;2024-01-10T06:47:22;102138.35;;;16.34;37.39
74966;BME280;63522;47.928;21.042;2024-01-10T06:49:47;102143.17;;;16.34;37.36
74966;BME280;63522;47.928;21.042;2024-01-10T06:52:13;102147.31;;;16.34;37.39
74966;BME280;63522;47.928;21.042;2024-01-10T06:54:38;102143.74;;;16.34;37.39
74966;BME280;63522;47.928;21.042;2024-01-10T06:57:04;102142.90;;;16.33;37.35
74966;BME280;63522;47.928;21.042;2024-01-10T06:59:29;102146.09;;;16.33;37.40
74966;BME280;63522;47.928;21.042;2024-01-10T07:01:54;102147.36;;;16.33;37.47
74966;BME280;63522;47.928;21.042;2024-01-10T07:04:22;102149.10;;;16.34;37.23
74966;BME280;63522;47.928;21.042;2024-01-10T07:06:49;102151.08;;;16.34;37.29
74966;BME280;63522;47.928;21.042;2024-01-10T07:09:15;102153.98;;;16.33;37.32
74966;BME280;63522;47.928;21.042;2024-01-10T07:11:48;102160.95;;;16.34;37.30
74966;BME280;63522;47.928;21.042;2024-01-10T07:14:14;102166.34;;;16.34;37.38
74966;BME280;63522;47.928;21.042;2024-01-10T07:16:41;102167.27;;;16.34;37.25
74966;BME280;63522;47.928;21.042;2024-01-10T07:19:10;102168.66;;;16.35;37.25
74966;BME280;63522;47.928;21.042;2024-01-10T07:21:39;102171.77;;;16.33;37.36
74966;BME280;63522;47.928;21.042;2024-01-10T07:24:05;102173.55;;;16.34;37.39
74966;BME280;63522;47.928;21.042;2024-01-10T07:26:30;102175.53;;;16.34;37.32
74966;BME280;63522;47.928;21.042;2024-01-10T07:28:56;102176.74;;;16.34;37.26
74966;BME280;63522;47.928;21.042;2024-01-10T07:31:21;102171.52;;;16.35;37.31
74966;BME280;63522;47.928;21.042;2024-01-10T07:33:48;102170.63;;;16.35;37.36
74966;BME280;63522;47.928;21.042;2024-01-10T07:36:13;102166.35;;;16.34;37.32
74966;BME280;63522;47.928;21.042;2024-01-10T07:38:39;102165.04;;;16.35;37.28
74966;BME280;63522;47.928;21.042;2024-01-10T07:41:04;102172.27;;;16.34;37.30
74966;BME280;63522;47.928;21.042;2024-01-10T07:43:29;102173.14;;;16.35;37.24
74966;BME280;63522;47.928;21.042;2024-01-10T07:45:55;102174.05;;;16.34;37.20
74966;BME280;63522;47.928;21.042;2024-01-10T07:48:20;102177.67;;;16.34;37.37
74966;BME280;63522;47.928;21.042;2024-01-10T07:50:45;102175.15;;;16.34;37.31
74966;BME280;63522;47.928;21.042;2024-01-10T07:53:11;102178.58;;;16.34;37.31
74966;BME280;63522;47.928;21.042;2024-01-10T07:55:36;102179.79;;;16.35;37.17
74966;BME280;63522;47.928;21.042;2024-01-10T07:58:01;102173.59;;;16.33;37.23
74966;BME280;63522;47.928;21.042;2024-01-10T08:00:28;102171.95;;;16.34;37.27
74966;BME280;63522;47.928;21.042;2024-01-10T08:02:55;102172.34;;;16.33;37.27
74966;BME280;63522;47.928;21.042;2024-01-10T08:05:20;102172.31;;;16.34;37.32
74966;BME280;63522;47.928;21.042;2024-01-10T08:07:46;102172.37;;;16.33;37.22
74966;BME280;63522;47.928;21.042;2024-01-10T08:10:11;102177.80;;;16.32;37.35
74966;BME280;63522;47.928;21.042;2024-01-10T08:12:38;102181.71;;;16.33;37.44
74966;BME280;63522;47.928;21.042;2024-01-10T08:15:04;102180.80;;;16.33;37.40
74966;BME280;63522;47.928;21.042;2024-01-10T08:17:31;102180.50;;;16.32;37.33
74966;BME280;63522;47.928;21.042;2024-01-10T08:19:58;102180.49;;;16.32;37.22
74966;BME280;63522;47.928;21.042;2024-01-10T08:22:23;102180.33;;;16.32;37.19
74966;BME280;63522;47.928;21.042;2024-01-10T08:24:51;102183.52;;;16.33;37.32
74966;BME280;63522;47.928;21.042;2024-01-10T08:27:16;102176.70;;;16.32;37.39
74966;BME280;63522;47.928;21.042;2024-01-10T08:29:42;102174.90;;;16.33;37.33
74966;BME280;63522;47.928;21.042;2024-01-10T08:32:07;102181.20;;;16.33;37.30
74966;BME280;63522;47.928;21.042;2024-01-10T08:34:33;102183.35;;;16.32;37.24
74966;BME280;63522;47.928;21.042;2024-01-10T08:36:58;102180.17;;;16.32;37.33
74966;BME280;63522;47.928;21.042;2024-01-10T08:39:23;102183.42;;;16.31;37.25
74966;BME280;63522;47.928;21.042;2024-01-10T08:41:51;102190.21;;;16.32;37.36
74966;BME280;63522;47.928;21.042;2024-01-10T08:44:18;102190.36;;;16.32;37.30
74966;BME280;63522;47.928;21.042;2024-01-10T08:46:43;102191.47;;;16.32;37.45
74966;BME280;63522;47.928;21.042;2024-01-10T08:49:09;102190.93;;;16.32;37.50
74966;BME280;63522;47.928;21.042;2024-01-10T08:51:35;102186.84;;;16.31;37.47
74966;BME280;63522;47.928;21.042;2024-01-10T08:54:00;102189.55;;;16.31;37.38
74966;BME280;63522;47.928;21.042;2024-01-10T08:56:26;102192.77;;;16.31;37.32
74966;BME280;63522;47.928;21.042;2024-01-10T08:58:52;102190.16;;;16.30;37.36
74966;BME280;63522;47.928;21.042;2024-01-10T09:01:17;102191.23;;;16.30;37.38
74966;BME280;63522;47.928;21.042;2024-01-10T09:03:44;102191.95;;;16.30;37.36
74966;BME280;63522;47.928;21.042;2024-01-10T09:06:09;102194.31;;;16.29;37.46
74966;BME280;63522;47.928;21.042;2024-01-10T09:08:34;102196.83;;;16.29;37.32
74966;BME280;63522;47.928;21.042;2024-01-10T09:11:00;102193.42;;;16.29;37.50
74966;BME280;63522;47.928;21.042;2024-01-10T09:13:25;102190.05;;;16.29;37.43
74966;BME280;63522;47.928;21.042;2024-01-10T09:15:51;102188.96;;;16.29;37.52
74966;BME280;63522;47.928;21.042;2024-01-10T09:18:16;102192.04;;;16.29;37.51
74966;BME280;63522;47.928;21.042;2024-01-10T09:20:42;102187.27;;;16.27;37.50
74966;BME280;63522;47.928;21.042;2024-01-10T09:23:07;102186.65;;;16.29;37.48
74966;BME280;63522;47.928;21.042;2024-01-10T09:25:32;102189.17;;;16.28;37.56
74966;BME280;63522;47.928;21.042;2024-01-10T09:27:58;102182.28;;;16.29;37.61
74966;BME280;63522;47.928;21.042;2024-01-10T09:30:24;102181.20;;;16.29;37.50
74966;BME280;63522;47.928;21.042;2024-01-10T09:32:49;102186.61;;;16.29;37.60
74966;BME280;63522;47.928;21.042;2024-01-10T09:35:15;102184.30;;;16.29;37.58
74966;BME280;63522;47.928;21.042;2024-01-10T09:37:40;102180.45;;;16.27;37.51
74966;BME280;63522;47.928;21.042;2024-01-10T09:40:06;102178.42;;;16.28;37.52
74966;BME280;63522;47.928;21.042;2024-01-10T09:42:33;102172.29;;;16.28;37.37
74966;BME280;63522;47.928;21.042;2024-01-10T09:45:00;102172.87;;;16.28;37.57
74966;BME280;63522;47.928;21.042;2024-01-10T09:47:27;102170.93;;;16.27;37.57
74966;BME280;63522;47.928;21.042;2024-01-10T09:49:52;102165.73;;;16.27;37.51
74966;BME280;63522;47.928;21.042;2024-01-10T09:52:27;102163.14;;;16.28;37.56
74966;BME280;63522;47.928;21.042;2024-01-10T09:54:54;102161.53;;;16.28;37.51
74966;BME280;63522;47.928;21.042;2024-01-10T09:57:22;102160.25;;;16.28;37.45
74966;BME280;63522;47.928;21.042;2024-01-10T09:59:49;102168.13;;;16.29;37.49
74966;BME280;63522;47.928;21.042;2024-01-10T10:02:18;102162.89;;;16.29;37.54
74966;BME280;63522;47.928;21.042;2024-01-10T10:05:34;102159.83;;;16.29;37.44
74966;BME280;63522;47.928;21.042;2024-01-10T10:07:48;102154.40;;;16.30;37.59
74966;BME280;63522;47.928;21.042;2024-01-10T10:10:14;102148.48;;;16.30;37.60
74966;BME280;63522;47.928;21.042;2024-01-10T10:12:47;102144.75;;;16.29;37.49
74966;BME280;63522;47.928;21.042;2024-01-10T10:15:17;102148.13;;;16.30;37.52
74966;BME280;63522;47.928;21.042;2024-01-10T10:17:45;102146.03;;;16.29;37.46
74966;BME280;63522;47.928;21.042;2024-01-10T10:20:28;102144.44;;;16.28;37.53
74966;BME280;63522;47.928;21.042;2024-01-10T10:22:58;102141.21;;;16.28;37.62
74966;BME280;63522;47.928;21.042;2024-01-10T10:25:36;102139.77;;;16.28;37.67
74966;BME280;63522;47.928;21.042;2024-01-10T10:28:04;102142.35;;;16.27;37.53
74966;BME280;63522;47.928;21.042;2024-01-10T10:30:33;102140.92;;;16.27;37.65
74966;BME280;63522;47.928;21.042;2024-01-10T10:32:59;102140.50;;;16.28;37.71
74966;BME280;63522;47.928;21.042;2024-01-10T10:35:25;102138.16;;;16.28;37.72
74966;BME280;63522;47.928;21.042;2024-01-10T10:37:52;102141.43;;;16.28;37.69
74966;BME280;63522;47.928;21.042;2024-01-10T10:40:18;102139.10;;;16.27;37.70
74966;BME280;63522;47.928;21.042;2024-01-10T10:42:45;102139.98;;;16.28;37.70
74966;BME280;63522;47.928;21.042;2024-01-10T10:45:17;102135.35;;;16.27;37.54
74966;BME280;63522;47.928;21.042;2024-01-10T10:47:47;102135.55;;;16.27;37.63
74966;BME280;63522;47.928;21.042;2024-01-10T10:50:21;102129.42;;;16.27;37.70
74966;BME280;63522;47.928;21.042;2024-01-10T10:52:47;102127.41;;;16.28;37.56
74966;BME280;63522;47.928;21.042;2024-01-10T10:55:15;102127.30;;;16.27;37.54
74966;BME280;63522;47.928;21.042;2024-01-10T10:57:44;102125.86;;;16.26;37.74
74966;BME280;63522;47.928;21.042;2024-01-10T11:00:11;102117.67;;;16.25;37.73
74966;BME280;63522;47.928;21.042;2024-01-10T11:02:40;102113.87;;;16.26;37.52
74966;BME280;63522;47.928;21.042;2024-01-10T11:05:08;102115.09;;;16.26;37.70
74966;BME280;63522;47.928;21.042;2024-01-10T11:07:41;102108.45;;;16.26;37.79
74966;BME280;63522;47.928;21.042;2024-01-10T11:10:21;102111.66;;;16.27;37.73
74966;BME280;63522;47.928;21.042;2024-01-10T11:13:25;102111.64;;;16.27;37.56
74966;BME280;63522;47.928;21.042;2024-01-10T11:18:51;102103.40;;;16.26;37.77
74966;BME280;63522;47.928;21.042;2024-01-10T11:24:10;102098.19;;;16.27;37.82
74966;BME280;63522;47.928;21.042;2024-01-10T11:26:38;102089.81;;;16.26;37.69
74966;BME280;63522;47.928;21.042;2024-01-10T11:29:05;102087.44;;;16.26;37.74
74966;BME280;63522;47.928;21.042;2024-01-10T11:31:32;102086.52;;;16.26;37.69
74966;BME280;63522;47.928;21.042;2024-01-10T11:33:58;102077.95;;;16.25;37.67
74966;BME280;63522;47.928;21.042;2024-01-10T11:36:25;102073.98;;;16.25;37.74
74966;BME280;63522;47.928;21.042;2024-01-10T11:41:27;102069.02;;;16.24;37.81
74966;BME280;63522;47.928;21.042;2024-01-10T11:46:43;102056.83;;;16.24;37.82
74966;BME280;63522;47.928;21.042;2024-01-10T11:49:12;102053.29;;;16.23;37.72
74966;BME280;63522;47.928;21.042;2024-01-10T11:54:36;102054.56;;;16.23;37.64
74966;BME280;63522;47.928;21.042;2024-01-10T11:57:03;102056.58;;;16.22;37.85
74966;BME280;63522;47.928;21.042;2024-01-10T11:59:32;102050.63;;;16.22;37.86
74966;BME280;63522;47.928;21.042;2024-01-10T12:01:57;102046.34;;;16.22;37.84
74966;BME280;63522;47.928;21.042;2024-01-10T12:04:23;102049.71;;;16.23;37.85
74966;BME280;63522;47.928;21.042;2024-01-10T12:06:52;102048.28;;;16.22;37.93
74966;BME280;63522;47.928;21.042;2024-01-10T12:09:17;102044.14;;;16.23;37.83
74966;BME280;63522;47.928;21.042;2024-01-10T12:11:43;102039.60;;;16.24;37.87
74966;BME280;63522;47.928;21.042;2024-01-10T12:14:08;102037.21;;;16.24;37.68
74966;BME280;63522;47.928;21.042;2024-01-10T12:16:34;102038.11;;;16.24;37.80
74966;BME280;63522;47.928;21.042;2024-01-10T12:19:00;102033.76;;;16.25;37.86
74966;BME280;63522;47.928;21.042;2024-01-10T12:21:25;102035.20;;;16.25;37.82
74966;BME280;63522;47.928;21.042;2024-01-10T12:23:51;102034.45;;;16.25;37.83
74966;BME280;63522;47.928;21.042;2024-01-10T12:26:19;102030.86;;;16.26;37.75
74966;BME280;63522;47.928;21.042;2024-01-10T12:29:16;102032.08;;;16.26;37.81
74966;BME280;63522;47.928;21.042;2024-01-10T12:31:42;102029.68;;;16.27;37.74
74966;BME280;63522;47.928;21.042;2024-01-10T12:34:10;102028.82;;;16.27;37.79
74966;BME280;63522;47.928;21.042;2024-01-10T12:36:36;102026.14;;;16.27;37.76
74966;BME280;63522;47.928;21.042;2024-01-10T12:39:02;102023.46;;;16.26;37.82
74966;BME280;63522;47.928;21.042;2024-01-10T12:41:28;102023.25;;;16.27;37.75
74966;BME280;63522;47.928;21.042;2024-01-10T12:43:54;102015.88;;;16.27;37.71
74966;BME280;63522;47.928;21.042;2024-01-10T12:46:20;102016.38;;;16.28;37.87
74966;BME280;63522;47.928;21.042;2024-01-10T12:48:58;102014.45;;;16.27;37.75
74966;BME280;63522;47.928;21.042;2024-01-10T12:51:26;102011.00;;;16.27;37.74